createdAt,value
2023-02-19T00:00:27.500Z,101249.72
2023-02-19T00:03:31.478Z,101246.28
2023-02-19T00:06:46.495Z,101257.75
2023-02-19T00:09:50.825Z,101260.06
2023-02-19T00:12:59.727Z,101249.69
2023-02-19T00:16:09.700Z,101260.78
2023-02-19T00:19:23.975Z,101257.41
2023-02-19T00:22:30.833Z,101256.63
2023-02-19T00:25:44.529Z,101264.69
2023-02-19T00:28:54.979Z,101256.31
2023-02-19T00:32:04.423Z,101271.84
2023-02-19T00:35:13.045Z,101266.06
2023-02-19T00:38:26.928Z,101262.59
2023-02-19T00:41:31.108Z,101271.38
2023-02-19T00:44:34.671Z,101271.34
2023-02-19T00:47:41.477Z,101272.09
2023-02-19T00:50:45.986Z,101269.78
2023-02-19T00:53:55.128Z,101262.69
2023-02-19T00:56:59.057Z,101280.31
2023-02-19T01:00:02.683Z,101281.38
2023-02-19T01:03:07.205Z,101275.13
2023-02-19T01:06:12.820Z,101273.31
2023-02-19T01:09:22.443Z,101279.47
2023-02-19T01:12:26.192Z,101278.75
2023-02-19T01:15:33.610Z,101280.56
2023-02-19T01:18:44.744Z,101276.94
2023-02-19T01:21:50.729Z,101277.06
2023-02-19T01:24:54.602Z,101283.38
2023-02-19T01:28:09.266Z,101273.28
2023-02-19T01:31:17.078Z,101280.19
2023-02-19T01:34:34.541Z,101284.50
2023-02-19T01:37:42.820Z,101277.44
2023-02-19T01:41:01.374Z,101282.41
2023-02-19T01:44:08.501Z,101281.59
2023-02-19T01:47:13.125Z,101284.06
2023-02-19T01:50:30.926Z,101281.44
2023-02-19T01:53:40.558Z,101274.50
2023-02-19T01:57:10.043Z,101279.75
2023-02-19T02:00:25.224Z,101276.16
2023-02-19T02:03:31.544Z,101287.72
2023-02-19T02:06:43.872Z,101284.91
2023-02-19T02:10:06.494Z,101286.09
2023-02-19T02:13:10.528Z,101289.94
2023-02-19T02:16:33.519Z,101297.31
2023-02-19T02:19:55.166Z,101302.78
2023-02-19T02:23:28.564Z,101301.41
2023-02-19T02:26:35.159Z,101304.63
2023-02-19T02:30:06.626Z,101311.72
2023-02-19T02:33:14.984Z,101316.59
2023-02-19T02:36:32.011Z,101305.88
2023-02-19T02:39:39.136Z,101316.53
2023-02-19T02:42:53.812Z,101313.94
2023-02-19T02:45:59.853Z,101320.25
2023-02-19T02:49:20.639Z,101302.34
2023-02-19T02:52:43.477Z,101311.75
2023-02-19T02:55:54.837Z,101305.06
2023-02-19T02:59:03.147Z,101311.78
2023-02-19T03:02:19.718Z,101297.72
2023-02-19T03:05:46.262Z,101293.13
2023-02-19T03:09:00.838Z,101302.81
2023-02-19T03:12:24.302Z,101301.31
2023-02-19T03:16:20.889Z,101303.66
2023-02-19T03:19:35.948Z,101304.66
2023-02-19T03:22:43.142Z,101301.41
2023-02-19T03:26:03.990Z,101310.44
2023-02-19T03:29:38.345Z,101308.25
2023-02-19T03:32:50.710Z,101318.69
2023-02-19T03:36:03.397Z,101317.41
2023-02-19T03:39:15.138Z,101305.44
2023-02-19T03:42:31.115Z,101311.69
2023-02-19T03:45:51.304Z,101313.09
2023-02-19T03:49:04.207Z,101317.22
2023-02-19T03:52:32.679Z,101313.25
2023-02-19T03:56:05.391Z,101319.78
2023-02-19T03:59:29.646Z,101317.47
2023-02-19T04:02:42.185Z,101309.47
2023-02-19T04:05:52.856Z,101310.44
2023-02-19T04:09:01.138Z,101313.81
2023-02-19T04:12:07.670Z,101306.00
2023-02-19T04:15:18.068Z,101312.22
2023-02-19T04:18:31.683Z,101310.69
2023-02-19T04:21:42.664Z,101302.22
2023-02-19T04:24:51.074Z,101323.63
2023-02-19T04:28:00.338Z,101319.25
2023-02-19T04:31:04.221Z,101317.91
2023-02-19T04:34:14.802Z,101312.44
2023-02-19T04:37:18.949Z,101313.28
2023-02-19T04:40:22.670Z,101298.97
2023-02-19T04:43:26.570Z,101305.72
2023-02-19T04:46:32.575Z,101317.25
2023-02-19T04:49:36.533Z,101317.53
2023-02-19T04:52:41.545Z,101314.09
2023-02-19T04:55:48.559Z,101323.16
2023-02-19T04:58:52.454Z,101307.19
2023-02-19T05:01:57.926Z,101318.00
2023-02-19T05:05:03.153Z,101315.00
2023-02-19T05:08:08.897Z,101309.97
2023-02-19T05:11:24.310Z,101313.34
2023-02-19T05:14:28.004Z,101301.56
2023-02-19T05:17:34.921Z,101319.28
2023-02-19T05:20:43.969Z,101312.50
2023-02-19T05:23:47.824Z,101316.72
2023-02-19T05:27:01.588Z,101317.56
2023-02-19T05:30:14.485Z,101319.28
2023-02-19T05:33:21.552Z,101321.78
2023-02-19T05:36:25.390Z,101319.25
2023-02-19T05:39:29.535Z,101320.13
2023-02-19T05:42:33.131Z,101326.00
2023-02-19T05:45:38.168Z,101317.56
2023-02-19T05:48:42.669Z,101326.00
2023-02-19T05:51:46.661Z,101325.53
2023-02-19T05:54:50.323Z,101322.69
2023-02-19T05:57:54.064Z,101333.97
2023-02-19T06:01:03.463Z,101337.78
2023-02-19T06:04:11.923Z,101334.47
2023-02-19T06:07:15.500Z,101318.75
2023-02-19T06:10:20.985Z,101335.94
2023-02-19T06:13:26.965Z,101340.09
2023-02-19T06:16:33.881Z,101342.41
2023-02-19T06:19:38.292Z,101341.84
2023-02-19T06:22:42.239Z,101331.28
2023-02-19T06:25:46.836Z,101341.38
2023-02-19T06:28:53.124Z,101329.47
2023-02-19T06:31:57.180Z,101334.75
2023-02-19T06:35:11.361Z,101326.50
2023-02-19T06:38:15.460Z,101326.47
2023-02-19T06:41:20.075Z,101321.84
2023-02-19T06:44:24.077Z,101325.94
2023-02-19T06:47:31.978Z,101324.38
2023-02-19T06:50:40.798Z,101330.72
2023-02-19T06:53:45.076Z,101323.38
2023-02-19T06:56:50.846Z,101328.13
2023-02-19T07:00:01.607Z,101320.50
2023-02-19T07:03:06.673Z,101317.31
2023-02-19T07:06:23.558Z,101327.00
2023-02-19T07:09:28.919Z,101319.38
2023-02-19T07:12:33.444Z,101312.44
2023-02-19T07:15:37.232Z,101323.97
2023-02-19T07:18:41.895Z,101316.50
2023-02-19T07:21:50.767Z,101301.72
2023-02-19T07:24:54.343Z,101300.50
2023-02-19T07:27:59.012Z,101306.38
2023-02-19T07:31:05.687Z,101298.28
2023-02-19T07:34:10.050Z,101302.56
2023-02-19T07:37:14.773Z,101306.53
2023-02-19T07:40:18.518Z,101305.22
2023-02-19T07:43:25.032Z,101299.81
2023-02-19T07:46:30.473Z,101301.94
2023-02-19T07:49:34.698Z,101304.50
2023-02-19T07:52:38.618Z,101295.34
2023-02-19T07:55:44.042Z,101297.69
2023-02-19T07:58:48.154Z,101300.66
2023-02-19T08:02:13.333Z,101292.81
2023-02-19T08:05:20.260Z,101295.28
2023-02-19T08:08:24.020Z,101289.00
2023-02-19T08:11:46.204Z,101284.56
2023-02-19T08:14:50.832Z,101282.34
2023-02-19T08:17:55.210Z,101281.94
2023-02-19T08:21:00.297Z,101285.31
2023-02-19T08:24:04.780Z,101279.88
2023-02-19T08:27:09.760Z,101288.25
2023-02-19T08:30:13.672Z,101283.06
2023-02-19T08:33:20.960Z,101292.63
2023-02-19T08:36:27.949Z,101290.25
2023-02-19T08:39:34.403Z,101292.81
2023-02-19T08:42:38.317Z,101299.16
2023-02-19T08:45:56.046Z,101297.03
2023-02-19T08:49:00.183Z,101298.66
2023-02-19T08:52:03.952Z,101301.66
2023-02-19T08:55:08.108Z,101290.28
2023-02-19T08:58:23.513Z,101291.16
2023-02-19T09:01:28.917Z,101291.69
2023-02-19T09:04:32.629Z,101294.91
2023-02-19T09:07:36.817Z,101287.38
2023-02-19T09:11:05.149Z,101289.47
2023-02-19T09:14:09.508Z,101298.69
2023-02-19T09:17:13.680Z,101296.09
2023-02-19T09:20:27.529Z,101296.25
2023-02-19T09:23:35.785Z,101292.59
2023-02-19T09:26:39.321Z,101295.41
2023-02-19T09:29:43.024Z,101291.53
2023-02-19T09:32:46.796Z,101293.00
2023-02-19T09:36:00.866Z,101311.47
2023-02-19T09:39:08.022Z,101305.63
2023-02-19T09:42:18.203Z,101303.94
2023-02-19T09:45:25.829Z,101310.78
2023-02-19T09:48:34.495Z,101298.97
2023-02-19T09:51:42.072Z,101302.88
2023-02-19T09:54:47.692Z,101308.34
2023-02-19T09:57:53.272Z,101296.13
2023-02-19T10:01:01.805Z,101293.19
2023-02-19T10:04:05.769Z,101296.25
2023-02-19T10:07:22.120Z,101290.34
2023-02-19T10:10:35.616Z,101304.69
2023-02-19T10:13:43.978Z,101301.56
2023-02-19T10:16:50.768Z,101293.34
2023-02-19T10:19:54.986Z,101290.50
2023-02-19T10:23:12.767Z,101293.88
2023-02-19T10:26:16.697Z,101288.06
2023-02-19T10:29:27.633Z,101290.88
2023-02-19T10:32:36.035Z,101286.28
2023-02-19T10:35:56.848Z,101284.16
2023-02-19T10:39:23.291Z,101288.97
2023-02-19T10:42:50.027Z,101292.53
2023-02-19T10:45:53.846Z,101289.78
2023-02-19T10:49:28.482Z,101285.78
2023-02-19T10:52:36.731Z,101288.81
2023-02-19T10:55:47.093Z,101280.28
2023-02-19T10:59:19.721Z,101289.47
2023-02-19T11:02:24.573Z,101297.31
2023-02-19T11:05:28.444Z,101286.44
2023-02-19T11:08:46.704Z,101289.88
2023-02-19T11:11:54.224Z,101289.50
2023-02-19T11:14:58.910Z,101283.47
2023-02-19T11:18:14.932Z,101302.38
2023-02-19T11:21:33.444Z,101284.31
2023-02-19T11:24:41.014Z,101284.75
2023-02-19T11:28:07.810Z,101276.03
2023-02-19T11:31:20.844Z,101275.19
2023-02-19T11:34:36.024Z,101273.22
2023-02-19T11:37:55.984Z,101286.03
2023-02-19T11:41:16.774Z,101288.13
2023-02-19T11:44:30.647Z,101277.88
2023-02-19T11:47:53.875Z,101278.50
2023-02-19T11:51:19.227Z,101277.66
2023-02-19T11:54:28.803Z,101276.53
2023-02-19T11:57:45.071Z,101278.00
2023-02-19T12:08:52.351Z,101282.38
2023-02-19T12:12:17.486Z,101278.16
2023-02-19T12:15:30.125Z,101278.28
2023-02-19T12:22:54.590Z,101267.19
2023-02-19T12:26:19.481Z,101278.91
2023-02-19T12:29:52.452Z,101280.16
2023-02-19T12:33:02.509Z,101277.50
2023-02-19T12:36:18.830Z,101270.53
2023-02-19T12:39:37.954Z,101278.34
2023-02-19T12:43:01.130Z,101277.63
2023-02-19T12:46:23.496Z,101269.13
2023-02-19T12:49:42.988Z,101290.38
2023-02-19T12:53:25.669Z,101285.84
2023-02-19T12:56:34.924Z,101280.44
2023-02-19T13:04:13.293Z,101279.47
2023-02-19T13:07:29.086Z,101280.13
2023-02-19T13:10:42.988Z,101275.38
2023-02-19T13:14:01.033Z,101266.56
2023-02-19T13:17:39.033Z,101281.53
2023-02-19T13:20:49.513Z,101269.13
2023-02-19T13:23:58.872Z,101264.91
2023-02-19T13:27:22.584Z,101272.63
2023-02-19T13:30:32.454Z,101267.13
2023-02-19T13:34:00.554Z,101268.84
2023-02-19T13:37:05.311Z,101266.41
2023-02-19T13:40:35.414Z,101270.44
2023-02-19T13:43:39.619Z,101267.06
2023-02-19T13:46:45.474Z,101272.91
2023-02-19T13:49:50.439Z,101266.59
2023-02-19T13:52:55.725Z,101262.31
2023-02-19T13:56:00.245Z,101273.97
2023-02-19T13:59:13.323Z,101268.41
2023-02-19T14:02:22.703Z,101271.63
2023-02-19T14:13:09.654Z,101278.56
2023-02-19T14:20:09.644Z,101272.16
2023-02-19T14:23:24.547Z,101268.22
2023-02-19T14:26:33.921Z,101273.06
2023-02-19T14:29:38.083Z,101274.38
2023-02-19T14:32:47.458Z,101273.75
2023-02-19T14:36:01.796Z,101267.28
2023-02-19T14:39:20.405Z,101262.25
2023-02-19T14:42:36.681Z,101263.88
2023-02-19T14:46:05.193Z,101268.09
2023-02-19T14:49:19.955Z,101262.88
2023-02-19T14:52:32.837Z,101266.75
2023-02-19T14:55:40.889Z,101256.50
2023-02-19T14:58:45.153Z,101262.81
2023-02-19T15:01:57.263Z,101259.75
2023-02-19T15:05:01.449Z,101257.13
2023-02-19T15:08:17.928Z,101263.88
2023-02-19T15:11:26.757Z,101267.31
2023-02-19T15:14:32.806Z,101255.63
2023-02-19T15:17:41.701Z,101259.03
2023-02-19T15:20:46.354Z,101257.31
2023-02-19T15:23:56.368Z,101257.56
2023-02-19T15:27:20.566Z,101262.25
2023-02-19T15:30:33.232Z,101270.66
2023-02-19T15:33:53.396Z,101249.00
2023-02-19T15:37:07.688Z,101244.41
2023-02-19T15:40:15.607Z,101250.44
2023-02-19T15:43:36.411Z,101249.53
2023-02-19T15:46:42.891Z,101248.25
2023-02-19T15:49:57.652Z,101249.78
2023-02-19T15:53:24.941Z,101250.50
2023-02-19T15:56:33.513Z,101262.34
2023-02-19T15:59:47.569Z,101252.69
2023-02-19T16:03:02.914Z,101245.72
2023-02-19T16:06:15.588Z,101242.56
2023-02-19T16:09:32.634Z,101240.47
2023-02-19T16:12:37.155Z,101255.13
2023-02-19T16:15:41.571Z,101251.03
2023-02-19T16:18:58.210Z,101242.25
2023-02-19T16:22:03.150Z,101246.22
2023-02-19T16:25:29.828Z,101253.47
2023-02-19T16:28:38.435Z,101245.53
2023-02-19T16:31:51.029Z,101249.56
2023-02-19T16:35:26.861Z,101244.69
2023-02-19T16:38:30.699Z,101250.38
2023-02-19T16:41:40.940Z,101239.31
2023-02-19T16:44:46.259Z,101245.41
2023-02-19T16:47:54.320Z,101242.69
2023-02-19T16:51:03.414Z,101236.06
2023-02-19T16:54:07.573Z,101244.09
2023-02-19T16:57:11.835Z,101241.88
2023-02-19T17:00:25.289Z,101232.28
2023-02-19T17:03:31.092Z,101233.63
2023-02-19T17:06:46.051Z,101232.69
2023-02-19T17:09:58.210Z,101238.34
2023-02-19T17:13:02.408Z,101236.66
2023-02-19T17:16:20.248Z,101231.25
2023-02-19T17:19:23.965Z,101227.31
2023-02-19T17:22:28.907Z,101243.34
2023-02-19T17:25:41.080Z,101242.75
2023-02-19T17:28:53.018Z,101243.81
2023-02-19T17:31:58.046Z,101239.97
2023-02-19T17:35:01.954Z,101230.66
2023-02-19T17:38:10.686Z,101233.72
2023-02-19T17:41:16.683Z,101235.53
2023-02-19T17:44:32.586Z,101245.88
2023-02-19T17:47:37.539Z,101245.31
2023-02-19T17:50:52.773Z,101235.91
2023-02-19T17:54:09.442Z,101240.38
2023-02-19T17:57:24.568Z,101235.72
2023-02-19T18:00:35.713Z,101224.84
2023-02-19T18:03:45.579Z,101231.03
2023-02-19T18:06:59.501Z,101223.75
2023-02-19T18:10:05.568Z,101229.22
2023-02-19T18:13:19.268Z,101235.34
2023-02-19T18:16:28.138Z,101227.53
2023-02-19T18:19:31.803Z,101226.03
2023-02-19T18:22:36.021Z,101225.31
2023-02-19T18:25:45.313Z,101218.41
2023-02-19T18:29:01.379Z,101219.63
2023-02-19T18:32:09.850Z,101220.34
2023-02-19T18:35:16.769Z,101214.50
2023-02-19T18:38:26.307Z,101227.53
2023-02-19T18:41:32.304Z,101220.91
2023-02-19T18:44:36.487Z,101227.69
2023-02-19T18:47:40.140Z,101225.72
2023-02-19T18:50:43.911Z,101229.31
2023-02-19T18:53:58.962Z,101220.22
2023-02-19T18:57:09.288Z,101229.25
2023-02-19T19:00:27.480Z,101232.16
2023-02-19T19:03:36.360Z,101231.84
2023-02-19T19:06:50.982Z,101235.25
2023-02-19T19:10:00.503Z,101235.19
2023-02-19T19:13:07.027Z,101229.47
2023-02-19T19:16:10.960Z,101225.72
2023-02-19T19:19:15.919Z,101211.94
2023-02-19T19:22:23.168Z,101223.72
2023-02-19T19:25:27.132Z,101227.38
2023-02-19T19:28:32.322Z,101229.47
2023-02-19T19:31:46.792Z,101224.16
2023-02-19T19:34:52.241Z,101220.66
2023-02-19T19:37:55.985Z,101227.72
2023-02-19T19:41:00.094Z,101223.41
2023-02-19T19:44:13.873Z,101220.28
2023-02-19T19:47:18.236Z,101222.34
2023-02-19T19:50:22.182Z,101228.59
2023-02-19T19:53:26.684Z,101228.69
2023-02-19T19:56:30.751Z,101214.97
2023-02-19T19:59:34.771Z,101214.44
2023-02-19T20:02:43.938Z,101213.69
2023-02-19T20:05:58.316Z,101197.94
2023-02-19T20:09:02.299Z,101201.59
2023-02-19T20:12:06.914Z,101206.66
2023-02-19T20:15:11.496Z,101199.22
2023-02-19T20:18:15.643Z,101208.75
2023-02-19T20:21:23.761Z,101205.69
2023-02-19T20:24:32.040Z,101208.44
2023-02-19T20:27:36.073Z,101210.25
2023-02-19T20:30:40.190Z,101203.56
2023-02-19T20:33:44.395Z,101198.31
2023-02-19T20:36:49.672Z,101197.09
2023-02-19T20:39:54.894Z,101192.53
2023-02-19T20:43:09.310Z,101187.38
2023-02-19T20:46:23.162Z,101189.66
2023-02-19T20:49:30.418Z,101186.69
2023-02-19T20:52:45.425Z,101182.84
2023-02-19T20:55:56.653Z,101182.72
2023-02-19T20:59:00.599Z,101171.91
2023-02-19T21:02:13.104Z,101184.50
2023-02-19T21:05:20.295Z,101174.41
2023-02-19T21:08:29.308Z,101176.94
2023-02-19T21:11:35.256Z,101169.38
2023-02-19T21:14:41.280Z,101171.88
2023-02-19T21:17:49.620Z,101172.69
2023-02-19T21:20:57.780Z,101162.56
2023-02-19T21:24:02.936Z,101169.31
2023-02-19T21:27:06.805Z,101175.06
2023-02-19T21:30:10.948Z,101170.09
2023-02-19T21:33:20.173Z,101165.13
2023-02-19T21:36:34.935Z,101162.53
2023-02-19T21:39:43.884Z,101160.75
2023-02-19T21:42:48.047Z,101169.03
2023-02-19T21:45:52.159Z,101157.13
2023-02-19T21:48:57.286Z,101160.81
2023-02-19T21:52:08.103Z,101159.19
2023-02-19T21:55:16.879Z,101167.41
2023-02-19T21:58:21.062Z,101162.09
2023-02-19T22:01:31.006Z,101159.63
2023-02-19T22:04:35.910Z,101148.84
2023-02-19T22:07:50.557Z,101144.38
2023-02-19T22:10:54.698Z,101145.34
2023-02-19T22:14:03.525Z,101148.50
2023-02-19T22:17:17.379Z,101139.97
2023-02-19T22:20:22.121Z,101148.00
2023-02-19T22:23:28.469Z,101149.47
2023-02-19T22:26:35.114Z,101153.28
2023-02-19T22:29:49.749Z,101144.19
2023-02-19T22:32:53.332Z,101142.88
2023-02-19T22:35:57.550Z,101142.75
2023-02-19T22:39:02.869Z,101127.63
2023-02-19T22:42:17.023Z,101134.81
2023-02-19T22:45:20.721Z,101144.19
2023-02-19T22:48:33.006Z,101126.38
2023-02-19T22:51:37.639Z,101132.13
2023-02-19T22:54:47.267Z,101134.91
2023-02-19T22:58:01.307Z,101136.28
2023-02-19T23:01:05.798Z,101139.41
2023-02-19T23:04:21.806Z,101129.94
2023-02-19T23:07:26.238Z,101115.50
2023-02-19T23:10:35.306Z,101123.22
2023-02-19T23:13:42.669Z,101119.16
2023-02-19T23:16:46.970Z,101110.13
2023-02-19T23:19:55.906Z,101096.16
2023-02-19T23:23:02.167Z,101103.75
2023-02-19T23:26:05.903Z,101101.84
2023-02-19T23:29:09.984Z,101119.59
2023-02-19T23:32:21.397Z,101106.56
2023-02-19T23:35:25.295Z,101111.53
2023-02-19T23:38:29.891Z,101111.31
2023-02-19T23:41:40.341Z,101104.41
2023-02-19T23:44:47.889Z,101094.69
2023-02-19T23:47:53.497Z,101092.25
2023-02-19T23:51:02.248Z,101082.81
2023-02-19T23:54:07.457Z,101057.59
2023-02-19T23:57:19.808Z,101063.94
